sensor_id;sensor_type;location;lat;lon;timestamp;pressure;altitude;pressure_sealevel;temperature;humidity
61128;BME280;47013;42.664;23.242;2023-09-30T00:00:00;94433.53;;;15.29;62.47
61128;BME280;47013;42.664;23.242;2023-09-30T00:02:26;94434.31;;;15.29;62.75
61128;BME280;47013;42.664;23.242;2023-09-30T00:04:52;94428.06;;;15.29;62.46
61128;BME280;47013;42.664;23.242;2023-09-30T00:07:18;94435.84;;;15.30;62.61
61128;BME280;47013;42.664;23.242;2023-09-30T00:09:43;94426.03;;;15.33;62.72
61128;BME280;47013;42.664;23.242;2023-09-30T00:12:09;94436.47;;;15.38;62.94
61128;BME280;47013;42.664;23.242;2023-09-30T00:14:34;94430.50;;;15.43;62.59
61128;BME280;47013;42.664;23.242;2023-09-30T00:17:00;94436.22;;;15.49;62.52
61128;BME280;47013;42.664;23.242;2023-09-30T00:19:25;94431.03;;;15.54;62.60
61128;BME280;47013;42.664;23.242;2023-09-30T00:21:51;94425.13;;;15.56;62.84
61128;BME280;47013;42.664;23.242;2023-09-30T00:24:17;94420.78;;;15.58;61.68
61128;BME280;47013;42.664;23.242;2023-09-30T00:26:42;94422.69;;;15.61;62.20
61128;BME280;47013;42.664;23.242;2023-09-30T00:29:07;94426.56;;;15.64;62.36
61128;BME280;47013;42.664;23.242;2023-09-30T00:31:33;94422.63;;;15.65;62.85
61128;BME280;47013;42.664;23.242;2023-09-30T00:33:58;94420.91;;;15.71;62.67
61128;BME280;47013;42.664;23.242;2023-09-30T00:36:24;94415.34;;;15.75;62.27
61128;BME280;47013;42.664;23.242;2023-09-30T00:38:50;94409.47;;;15.76;61.77
61128;BME280;47013;42.664;23.242;2023-09-30T00:41:15;94417.91;;;15.82;61.24
61128;BME280;47013;42.664;23.242;2023-09-30T00:43:41;94418.59;;;15.86;62.01
61128;BME280;47013;42.664;23.242;2023-09-30T00:46:17;94423.22;;;15.89;62.01
61128;BME280;47013;42.664;23.242;2023-09-30T00:48:46;94418.16;;;15.87;60.88
61128;BME280;47013;42.664;23.242;2023-09-30T00:51:12;94419.69;;;15.88;60.85
61128;BME280;47013;42.664;23.242;2023-09-30T00:53:38;94423.91;;;15.93;60.98
61128;BME280;47013;42.664;23.242;2023-09-30T00:56:03;94420.31;;;15.96;61.61
61128;BME280;47013;42.664;23.242;2023-09-30T00:58:29;94420.97;;;16.00;60.19
61128;BME280;47013;42.664;23.242;2023-09-30T01:00:56;94419.44;;;15.99;60.96
61128;BME280;47013;42.664;23.242;2023-09-30T01:03:22;94412.00;;;16.00;60.90
61128;BME280;47013;42.664;23.242;2023-09-30T01:05:48;94415.50;;;16.00;60.25
61128;BME280;47013;42.664;23.242;2023-09-30T01:08:15;94414.31;;;16.01;60.64
61128;BME280;47013;42.664;23.242;2023-09-30T01:10:41;94413.47;;;16.04;61.08
61128;BME280;47013;42.664;23.242;2023-09-30T01:13:07;94410.31;;;16.06;60.49
61128;BME280;47013;42.664;23.242;2023-09-30T01:15:32;94402.59;;;16.01;60.47
61128;BME280;47013;42.664;23.242;2023-09-30T01:17:57;94407.75;;;15.99;61.07
61128;BME280;47013;42.664;23.242;2023-09-30T01:20:23;94406.22;;;15.98;61.64
61128;BME280;47013;42.664;23.242;2023-09-30T01:22:49;94407.41;;;15.97;61.36
61128;BME280;47013;42.664;23.242;2023-09-30T01:25:14;94403.56;;;15.94;61.38
61128;BME280;47013;42.664;23.242;2023-09-30T01:27:39;94411.78;;;15.94;61.77
61128;BME280;47013;42.664;23.242;2023-09-30T01:30:05;94408.59;;;15.96;61.22
61128;BME280;47013;42.664;23.242;2023-09-30T01:32:31;94402.13;;;15.89;61.17
61128;BME280;47013;42.664;23.242;2023-09-30T01:34:56;94408.75;;;15.88;61.52
61128;BME280;47013;42.664;23.242;2023-09-30T01:37:22;94408.28;;;15.93;62.47
61128;BME280;47013;42.664;23.242;2023-09-30T01:39:47;94408.50;;;15.99;62.08
61128;BME280;47013;42.664;23.242;2023-09-30T01:42:15;94405.00;;;15.99;61.07
61128;BME280;47013;42.664;23.242;2023-09-30T01:44:40;94406.22;;;15.98;60.37
61128;BME280;47013;42.664;23.242;2023-09-30T01:47:06;94405.19;;;15.91;60.10
61128;BME280;47013;42.664;23.242;2023-09-30T01:49:31;94407.84;;;15.95;59.55
61128;BME280;47013;42.664;23.242;2023-09-30T01:51:57;94402.69;;;15.97;59.78
61128;BME280;47013;42.664;23.242;2023-09-30T01:54:23;94406.97;;;15.98;60.89
61128;BME280;47013;42.664;23.242;2023-09-30T01:56:48;94404.16;;;16.02;61.56
61128;BME280;47013;42.664;23.242;2023-09-30T01:59:15;94405.28;;;16.04;61.43
61128;BME280;47013;42.664;23.242;2023-09-30T02:01:40;94410.66;;;16.08;61.31
61128;BME280;47013;42.664;23.242;2023-09-30T02:04:05;94405.19;;;16.08;60.79
61128;BME280;47013;42.664;23.242;2023-09-30T02:06:31;94396.53;;;16.09;60.65
61128;BME280;47013;42.664;23.242;2023-09-30T02:08:57;94399.72;;;16.08;60.64
61128;BME280;47013;42.664;23.242;2023-09-30T02:11:22;94393.13;;;16.05;60.38
61128;BME280;47013;42.664;23.242;2023-09-30T02:13:48;94399.81;;;16.04;60.87
61128;BME280;47013;42.664;23.242;2023-09-30T02:16:14;94397.91;;;16.01;59.91
61128;BME280;47013;42.664;23.242;2023-09-30T02:18:41;94390.00;;;15.90;60.48
61128;BME280;47013;42.664;23.242;2023-09-30T02:21:07;94396.72;;;15.86;60.20
61128;BME280;47013;42.664;23.242;2023-09-30T02:23:34;94390.91;;;15.84;60.49
61128;BME280;47013;42.664;23.242;2023-09-30T02:26:00;94395.28;;;15.81;60.95
61128;BME280;47013;42.664;23.242;2023-09-30T02:28:25;94392.63;;;15.78;60.97
61128;BME280;47013;42.664;23.242;2023-09-30T02:30:50;94398.94;;;15.75;61.51
61128;BME280;47013;42.664;23.242;2023-09-30T02:33:16;94399.81;;;15.72;60.83
61128;BME280;47013;42.664;23.242;2023-09-30T02:35:45;94403.06;;;15.67;61.30
61128;BME280;47013;42.664;23.242;2023-09-30T02:38:11;94399.22;;;15.64;61.60
61128;BME280;47013;42.664;23.242;2023-09-30T02:40:37;94393.09;;;15.56;61.21
61128;BME280;47013;42.664;23.242;2023-09-30T02:43:03;94401.81;;;15.51;61.50
61128;BME280;47013;42.664;23.242;2023-09-30T02:45:29;94399.66;;;15.43;61.57
61128;BME280;47013;42.664;23.242;2023-09-30T02:47:55;94394.00;;;15.33;62.08
61128;BME280;47013;42.664;23.242;2023-09-30T02:50:20;94390.69;;;15.26;61.98
61128;BME280;47013;42.664;23.242;2023-09-30T02:52:46;94394.75;;;15.18;62.48
61128;BME280;47013;42.664;23.242;2023-09-30T02:55:12;94400.63;;;15.16;62.73
61128;BME280;47013;42.664;23.242;2023-09-30T02:57:38;94403.38;;;15.16;63.35
61128;BME280;47013;42.664;23.242;2023-09-30T03:00:05;94398.69;;;15.17;63.20
61128;BME280;47013;42.664;23.242;2023-09-30T03:02:49;94398.75;;;15.13;62.64
61128;BME280;47013;42.664;23.242;2023-09-30T03:05:16;94403.88;;;15.11;62.19
61128;BME280;47013;42.664;23.242;2023-09-30T03:07:41;94396.16;;;15.06;63.31
61128;BME280;47013;42.664;23.242;2023-09-30T03:10:07;94401.38;;;15.00;63.10
61128;BME280;47013;42.664;23.242;2023-09-30T03:12:34;94396.47;;;14.92;62.78
61128;BME280;47013;42.664;23.242;2023-09-30T03:15:00;94400.81;;;14.89;63.04
61128;BME280;47013;42.664;23.242;2023-09-30T03:17:32;94402.84;;;14.85;63.50
61128;BME280;47013;42.664;23.242;2023-09-30T03:19:58;94400.13;;;14.85;63.65
61128;BME280;47013;42.664;23.242;2023-09-30T03:22:25;94397.78;;;14.84;63.31
61128;BME280;47013;42.664;23.242;2023-09-30T03:24:52;94395.91;;;14.81;63.97
61128;BME280;47013;42.664;23.242;2023-09-30T03:27:19;94400.19;;;14.82;63.70
61128;BME280;47013;42.664;23.242;2023-09-30T03:29:45;94396.25;;;14.83;64.04
61128;BME280;47013;42.664;23.242;2023-09-30T03:32:11;94398.56;;;14.84;64.37
61128;BME280;47013;42.664;23.242;2023-09-30T03:34:36;94396.25;;;14.83;64.23
61128;BME280;47013;42.664;23.242;2023-09-30T03:37:02;94398.66;;;14.81;63.86
61128;BME280;47013;42.664;23.242;2023-09-30T03:39:27;94392.75;;;14.82;64.50
61128;BME280;47013;42.664;23.242;2023-09-30T03:41:54;94392.06;;;14.78;63.64
61128;BME280;47013;42.664;23.242;2023-09-30T03:44:21;94392.91;;;14.75;63.41
61128;BME280;47013;42.664;23.242;2023-09-30T03:46:48;94391.38;;;14.74;63.76
61128;BME280;47013;42.664;23.242;2023-09-30T03:49:13;94393.25;;;14.77;64.18
61128;BME280;47013;42.664;23.242;2023-09-30T03:51:38;94390.97;;;14.75;63.19
61128;BME280;47013;42.664;23.242;2023-09-30T03:54:04;94387.88;;;14.73;63.61
61128;BME280;47013;42.664;23.242;2023-09-30T03:56:31;94387.47;;;14.75;63.95
61128;BME280;47013;42.664;23.242;2023-09-30T03:58:56;94390.97;;;14.75;63.94
61128;BME280;47013;42.664;23.242;2023-09-30T04:01:22;94389.75;;;14.77;63.54
61128;BME280;47013;42.664;23.242;2023-09-30T04:03:48;94390.19;;;14.75;64.80
61128;BME280;47013;42.664;23.242;2023-09-30T04:06:14;94396.41;;;14.75;64.96
61128;BME280;47013;42.664;23.242;2023-09-30T04:08:39;94393.25;;;14.77;64.63
61128;BME280;47013;42.664;23.242;2023-09-30T04:11:06;94382.34;;;14.77;64.83
61128;BME280;47013;42.664;23.242;2023-09-30T04:13:31;94390.88;;;14.79;64.48
61128;BME280;47013;42.664;23.242;2023-09-30T04:15:58;94395.56;;;14.79;64.17
61128;BME280;47013;42.664;23.242;2023-09-30T04:18:24;94394.03;;;14.78;64.13
61128;BME280;47013;42.664;23.242;2023-09-30T04:20:52;94392.91;;;14.75;64.41
61128;BME280;47013;42.664;23.242;2023-09-30T04:23:17;94393.75;;;14.72;65.07
61128;BME280;47013;42.664;23.242;2023-09-30T04:25:45;94399.63;;;14.70;65.51
61128;BME280;47013;42.664;23.242;2023-09-30T04:28:14;94402.84;;;14.65;64.99
61128;BME280;47013;42.664;23.242;2023-09-30T04:30:41;94401.31;;;14.64;64.53
61128;BME280;47013;42.664;23.242;2023-09-30T04:33:06;94411.47;;;14.64;64.75
61128;BME280;47013;42.664;23.242;2023-09-30T04:35:32;94408.03;;;14.60;64.62
61128;BME280;47013;42.664;23.242;2023-09-30T04:37:57;94413.13;;;14.58;65.41
61128;BME280;47013;42.664;23.242;2023-09-30T04:40:30;94420.38;;;14.44;65.95
61128;BME280;47013;42.664;23.242;2023-09-30T04:42:55;94424.50;;;14.33;67.40
61128;BME280;47013;42.664;23.242;2023-09-30T04:45:24;94423.72;;;14.32;67.84
61128;BME280;47013;42.664;23.242;2023-09-30T04:47:53;94423.22;;;14.37;67.56
61128;BME280;47013;42.664;23.242;2023-09-30T04:50:21;94426.31;;;14.39;67.81
61128;BME280;47013;42.664;23.242;2023-09-30T04:52:50;94419.66;;;14.40;67.89
61128;BME280;47013;42.664;23.242;2023-09-30T04:55:16;94431.41;;;14.37;67.32
61128;BME280;47013;42.664;23.242;2023-09-30T04:57:44;94430.22;;;14.38;67.22
61128;BME280;47013;42.664;23.242;2023-09-30T05:00:18;94429.72;;;14.43;67.44
61128;BME280;47013;42.664;23.242;2023-09-30T05:02:44;94432.78;;;14.49;67.34
61128;BME280;47013;42.664;23.242;2023-09-30T05:05:10;94435.78;;;14.55;67.54
61128;BME280;47013;42.664;23.242;2023-09-30T05:07:36;94442.31;;;14.61;67.73
61128;BME280;47013;42.664;23.242;2023-09-30T05:10:03;94439.53;;;14.64;68.27
61128;BME280;47013;42.664;23.242;2023-09-30T05:12:35;94434.91;;;14.61;68.32
61128;BME280;47013;42.664;23.242;2023-09-30T05:15:00;94438.69;;;14.67;69.12
61128;BME280;47013;42.664;23.242;2023-09-30T05:17:27;94437.38;;;14.75;69.05
61128;BME280;47013;42.664;23.242;2023-09-30T05:19:53;94439.16;;;14.82;68.72
61128;BME280;47013;42.664;23.242;2023-09-30T05:22:19;94435.88;;;14.91;68.63
61128;BME280;47013;42.664;23.242;2023-09-30T05:24:49;94435.00;;;14.97;68.48
61128;BME280;47013;42.664;23.242;2023-09-30T05:27:14;94434.81;;;15.04;68.50
61128;BME280;47013;42.664;23.242;2023-09-30T05:29:40;94428.09;;;15.09;68.47
61128;BME280;47013;42.664;23.242;2023-09-30T05:32:05;94436.84;;;15.20;68.39
61128;BME280;47013;42.664;23.242;2023-09-30T05:34:32;94435.41;;;15.32;67.94
61128;BME280;47013;42.664;23.242;2023-09-30T05:36:58;94440.66;;;15.43;67.49
61128;BME280;47013;42.664;23.242;2023-09-30T05:39:23;94443.06;;;15.57;67.57
61128;BME280;47013;42.664;23.242;2023-09-30T05:41:50;94450.28;;;15.67;68.25
61128;BME280;47013;42.664;23.242;2023-09-30T05:44:15;94450.81;;;15.78;67.02
61128;BME280;47013;42.664;23.242;2023-09-30T05:46:41;94448.19;;;15.91;66.91
61128;BME280;47013;42.664;23.242;2023-09-30T05:49:08;94457.69;;;16.03;65.49
61128;BME280;47013;42.664;23.242;2023-09-30T05:51:39;94454.50;;;16.20;66.44
61128;BME280;47013;42.664;23.242;2023-09-30T05:54:06;94458.06;;;16.34;66.24
61128;BME280;47013;42.664;23.242;2023-09-30T05:56:32;94457.03;;;16.44;66.37
61128;BME280;47013;42.664;23.242;2023-09-30T05:58:58;94455.91;;;16.58;65.36
61128;BME280;47013;42.664;23.242;2023-09-30T06:01:23;94457.53;;;16.71;64.59
61128;BME280;47013;42.664;23.242;2023-09-30T06:03:49;94457.56;;;16.84;64.13
61128;BME280;47013;42.664;23.242;2023-09-30T06:06:14;94460.22;;;16.88;63.02
61128;BME280;47013;42.664;23.242;2023-09-30T06:08:42;94469.34;;;16.97;62.47
61128;BME280;47013;42.664;23.242;2023-09-30T06:11:16;94468.94;;;17.12;60.87
61128;BME280;47013;42.664;23.242;2023-09-30T06:13:42;94477.66;;;17.23;60.69
61128;BME280;47013;42.664;23.242;2023-09-30T06:16:07;94470.97;;;17.36;61.13
61128;BME280;47013;42.664;23.242;2023-09-30T06:18:33;94476.88;;;17.22;60.42
61128;BME280;47013;42.664;23.242;2023-09-30T06:20:58;94472.06;;;17.26;59.98
61128;BME280;47013;42.664;23.242;2023-09-30T06:23:23;94475.25;;;17.37;60.88
61128;BME280;47013;42.664;23.242;2023-09-30T06:25:49;94474.72;;;17.55;64.48
61128;BME280;47013;42.664;23.242;2023-09-30T06:28:14;94479.25;;;17.62;59.20
61128;BME280;47013;42.664;23.242;2023-09-30T06:30:40;94477.75;;;17.74;58.51
61128;BME280;47013;42.664;23.242;2023-09-30T06:33:07;94482.13;;;17.84;57.90
61128;BME280;47013;42.664;23.242;2023-09-30T06:35:34;94482.47;;;17.98;55.80
61128;BME280;47013;42.664;23.242;2023-09-30T06:38:03;94486.63;;;18.16;56.08
61128;BME280;47013;42.664;23.242;2023-09-30T06:40:28;94482.47;;;18.24;55.74
61128;BME280;47013;42.664;23.242;2023-09-30T06:42:53;94490.31;;;18.35;54.86
61128;BME280;47013;42.664;23.242;2023-09-30T06:45:19;94483.19;;;18.50;55.15
61128;BME280;47013;42.664;23.242;2023-09-30T06:47:47;94483.50;;;18.65;54.64
61128;BME280;47013;42.664;23.242;2023-09-30T06:50:13;94488.19;;;18.77;53.42
61128;BME280;47013;42.664;23.242;2023-09-30T06:52:42;94480.84;;;18.96;53.27
61128;BME280;47013;42.664;23.242;2023-09-30T06:55:10;94486.16;;;19.12;52.49
61128;BME280;47013;42.664;23.242;2023-09-30T06:57:39;94487.00;;;19.22;51.97
61128;BME280;47013;42.664;23.242;2023-09-30T07:00:10;94491.53;;;19.37;52.16
61128;BME280;47013;42.664;23.242;2023-09-30T07:02:37;94488.03;;;19.59;51.93
61128;BME280;47013;42.664;23.242;2023-09-30T07:05:11;94493.59;;;19.68;51.49
61128;BME280;47013;42.664;23.242;2023-09-30T07:07:37;94502.63;;;19.68;51.71
61128;BME280;47013;42.664;23.242;2023-09-30T07:10:04;94503.28;;;19.82;51.18
61128;BME280;47013;42.664;23.242;2023-09-30T07:12:30;94495.88;;;20.00;50.46
61128;BME280;47013;42.664;23.242;2023-09-30T07:14:57;94499.63;;;20.25;49.36
61128;BME280;47013;42.664;23.242;2023-09-30T07:17:22;94498.44;;;20.35;48.58
61128;BME280;47013;42.664;23.242;2023-09-30T07:19:48;94493.66;;;20.57;47.90
61128;BME280;47013;42.664;23.242;2023-09-30T07:22:14;94496.69;;;20.69;46.77
61128;BME280;47013;42.664;23.242;2023-09-30T07:24:39;94495.50;;;20.88;46.88
61128;BME280;47013;42.664;23.242;2023-09-30T07:27:04;94495.69;;;21.12;45.90
61128;BME280;47013;42.664;23.242;2023-09-30T07:29:30;94499.38;;;21.27;45.22
61128;BME280;47013;42.664;23.242;2023-09-30T07:31:55;94505.78;;;21.33;42.89
61128;BME280;47013;42.664;23.242;2023-09-30T07:34:20;94497.81;;;21.44;42.78
61128;BME280;47013;42.664;23.242;2023-09-30T07:36:46;94495.34;;;21.65;42.06
61128;BME280;47013;42.664;23.242;2023-09-30T07:39:11;94505.44;;;21.77;40.99
61128;BME280;47013;42.664;23.242;2023-09-30T07:41:38;94500.91;;;21.98;40.73
61128;BME280;47013;42.664;23.242;2023-09-30T07:44:03;94507.34;;;22.04;40.11
61128;BME280;47013;42.664;23.242;2023-09-30T07:46:30;94506.44;;;22.07;40.12
61128;BME280;47013;42.664;23.242;2023-09-30T07:48:55;94507.31;;;22.13;39.90
61128;BME280;47013;42.664;23.242;2023-09-30T07:51:21;94501.56;;;22.35;38.84
61128;BME280;47013;42.664;23.242;2023-09-30T07:53:46;94512.69;;;22.50;39.10
61128;BME280;47013;42.664;23.242;2023-09-30T07:56:12;94509.06;;;22.67;38.42
61128;BME280;47013;42.664;23.242;2023-09-30T07:58:38;94509.75;;;22.77;38.49
61128;BME280;47013;42.664;23.242;2023-09-30T08:01:03;94508.16;;;22.94;37.66
61128;BME280;47013;42.664;23.242;2023-09-30T08:03:29;94509.25;;;23.12;37.65
61128;BME280;47013;42.664;23.242;2023-09-30T08:05:55;94505.69;;;23.35;36.84
61128;BME280;47013;42.664;23.242;2023-09-30T08:08:20;94511.91;;;23.45;36.09
61128;BME280;47013;42.664;23.242;2023-09-30T08:10:47;94507.53;;;23.68;36.18
61128;BME280;47013;42.664;23.242;2023-09-30T08:13:13;94511.38;;;23.70;35.50
61128;BME280;47013;42.664;23.242;2023-09-30T08:15:38;94503.66;;;23.89;35.53
61128;BME280;47013;42.664;23.242;2023-09-30T08:18:04;94502.19;;;24.08;34.76
61128;BME280;47013;42.664;23.242;2023-09-30T08:20:31;94500.75;;;24.13;34.11
61128;BME280;47013;42.664;23.242;2023-09-30T08:22:56;94510.41;;;24.18;34.05
61128;BME280;47013;42.664;23.242;2023-09-30T08:25:22;94505.44;;;24.07;33.95
61128;BME280;47013;42.664;23.242;2023-09-30T08:27:47;94498.94;;;24.25;33.94
61128;BME280;47013;42.664;23.242;2023-09-30T08:30:15;94506.88;;;24.17;32.52
61128;BME280;47013;42.664;23.242;2023-09-30T08:32:40;94504.19;;;24.08;31.43
61128;BME280;47013;42.664;23.242;2023-09-30T08:35:06;94495.56;;;24.21;32.26
61128;BME280;47013;42.664;23.242;2023-09-30T08:37:32;94509.34;;;24.15;31.50
61128;BME280;47013;42.664;23.242;2023-09-30T08:39:58;94503.81;;;24.30;31.67
61128;BME280;47013;42.664;23.242;2023-09-30T08:42:23;94499.41;;;24.38;31.78
61128;BME280;47013;42.664;23.242;2023-09-30T08:44:53;94494.72;;;24.29;31.69
61128;BME280;47013;42.664;23.242;2023-09-30T08:47:19;94500.72;;;24.42;31.88
61128;BME280;47013;42.664;23.242;2023-09-30T08:49:46;94492.81;;;24.70;31.88
61128;BME280;47013;42.664;23.242;2023-09-30T08:52:12;94499.97;;;24.97;31.63
61128;BME280;47013;42.664;23.242;2023-09-30T08:54:42;94495.78;;;25.02;31.15
61128;BME280;47013;42.664;23.242;2023-09-30T08:57:10;94493.31;;;25.10;30.23
61128;BME280;47013;42.664;23.242;2023-09-30T08:59:35;94488.41;;;25.19;29.64
61128;BME280;47013;42.664;23.242;2023-09-30T09:02:08;94484.88;;;25.19;30.38
61128;BME280;47013;42.664;23.242;2023-09-30T09:04:35;94483.38;;;25.44;30.16
61128;BME280;47013;42.664;23.242;2023-09-30T09:07:01;94486.13;;;25.18;29.59
61128;BME280;47013;42.664;23.242;2023-09-30T09:09:26;94479.81;;;25.17;28.85
61128;BME280;47013;42.664;23.242;2023-09-30T09:11:52;94484.47;;;25.06;28.28
61128;BME280;47013;42.664;23.242;2023-09-30T09:14:17;94477.16;;;25.08;29.27
61128;BME280;47013;42.664;23.242;2023-09-30T09:16:54;94479.63;;;25.01;28.83
61128;BME280;47013;42.664;23.242;2023-09-30T09:19:20;94477.72;;;24.92;28.60
61128;BME280;47013;42.664;23.242;2023-09-30T09:21:57;94476.03;;;24.80;28.82
61128;BME280;47013;42.664;23.242;2023-09-30T09:24:30;94470.56;;;24.65;29.21
61128;BME280;47013;42.664;23.242;2023-09-30T09:27:09;94482.09;;;24.43;29.37
61128;BME280;47013;42.664;23.242;2023-09-30T09:29:39;94469.19;;;24.40;29.82
61128;BME280;47013;42.664;23.242;2023-09-30T09:34:34;94463.56;;;24.20;29.74
61128;BME280;47013;42.664;23.242;2023-09-30T09:37:12;94469.22;;;24.25;29.65
61128;BME280;47013;42.664;23.242;2023-09-30T09:39:38;94469.31;;;24.31;29.25
61128;BME280;47013;42.664;23.242;2023-09-30T09:42:03;94468.38;;;24.54;29.37
61128;BME280;47013;42.664;23.242;2023-09-30T09:44:29;94465.50;;;24.63;29.43
61128;BME280;47013;42.664;23.242;2023-09-30T09:46:56;94457.16;;;24.43;28.76
61128;BME280;47013;42.664;23.242;2023-09-30T09:49:23;94454.69;;;24.65;28.61
61128;BME280;47013;42.664;23.242;2023-09-30T09:51:50;94468.13;;;24.93;29.00
61128;BME280;47013;42.664;23.242;2023-09-30T09:54:17;94460.88;;;25.16;29.12
61128;BME280;47013;42.664;23.242;2023-09-30T09:56:45;94462.63;;;25.39;28.30
61128;BME280;47013;42.664;23.242;2023-09-30T09:59:12;94460.72;;;25.51;27.52
61128;BME280;47013;42.664;23.242;2023-09-30T10:01:39;94455.22;;;25.56;27.74
61128;BME280;47013;42.664;23.242;2023-09-30T10:04:05;94452.56;;;25.68;27.84
61128;BME280;47013;42.664;23.242;2023-09-30T10:06:32;94453.59;;;25.96;27.03
61128;BME280;47013;42.664;23.242;2023-09-30T10:09:06;94450.25;;;26.24;26.80
61128;BME280;47013;42.664;23.242;2023-09-30T10:11:33;94453.41;;;26.37;26.33
61128;BME280;47013;42.664;23.242;2023-09-30T10:13:58;94443.53;;;26.36;26.64
61128;BME280;47013;42.664;23.242;2023-09-30T10:19:21;94443.19;;;26.65;26.25
61128;BME280;47013;42.664;23.242;2023-09-30T10:24:55;94434.13;;;26.76;26.09
61128;BME280;47013;42.664;23.242;2023-09-30T10:35:41;94428.31;;;26.74;25.82
61128;BME280;47013;42.664;23.242;2023-09-30T10:40:49;94421.16;;;27.16;24.80
61128;BME280;47013;42.664;23.242;2023-09-30T10:43:44;94428.16;;;27.00;24.32
61128;BME280;47013;42.664;23.242;2023-09-30T10:48:54;94410.94;;;26.90;23.85
61128;BME280;47013;42.664;23.242;2023-09-30T10:51:20;94412.81;;;27.10;23.75
61128;BME280;47013;42.664;23.242;2023-09-30T10:53:54;94422.22;;;27.41;23.68
61128;BME280;47013;42.664;23.242;2023-09-30T10:56:22;94416.41;;;27.44;23.13
61128;BME280;47013;42.664;23.242;2023-09-30T10:58:50;94414.06;;;27.15;23.58
61128;BME280;47013;42.664;23.242;2023-09-30T11:01:21;94404.91;;;26.97;23.86
61128;BME280;47013;42.664;23.242;2023-09-30T11:03:48;94405.72;;;27.09;23.82
61128;BME280;47013;42.664;23.242;2023-09-30T11:06:18;94404.97;;;27.20;23.45
61128;BME280;47013;42.664;23.242;2023-09-30T11:08:53;94401.66;;;27.16;23.23
61128;BME280;47013;42.664;23.242;2023-09-30T11:11:41;94402.97;;;27.26;23.36
61128;BME280;47013;42.664;23.242;2023-09-30T11:14:30;94406.47;;;27.10;23.42
61128;BME280;47013;42.664;23.242;2023-09-30T11:17:02;94398.13;;;27.15;23.48
61128;BME280;47013;42.664;23.242;2023-09-30T11:19:47;94392.88;;;27.40;22.75
61128;BME280;47013;42.664;23.242;2023-09-30T11:22:14;94394.69;;;26.78;23.49
61128;BME280;47013;42.664;23.242;2023-09-30T11:24:40;94392.94;;;26.80;23.72
61128;BME280;47013;42.664;23.242;2023-09-30T11:27:05;94397.66;;;26.63;23.83
61128;BME280;47013;42.664;23.242;2023-09-30T11:29:32;94392.84;;;26.58;23.68
61128;BME280;47013;42.664;23.242;2023-09-30T11:31:57;94384.63;;;26.91;23.95
61128;BME280;47013;42.664;23.242;2023-09-30T11:34:36;94391.03;;;27.09;23.05
61128;BME280;47013;42.664;23.242;2023-09-30T11:37:02;94379.94;;;27.25;22.93
61128;BME280;47013;42.664;23.242;2023-09-30T11:39:29;94381.97;;;27.42;22.83
61128;BME280;47013;42.664;23.242;2023-09-30T11:41:55;94385.00;;;27.32;22.85
61128;BME280;47013;42.664;23.242;2023-09-30T11:44:22;94378.94;;;27.40;23.75
61128;BME280;47013;42.664;23.242;2023-09-30T11:49:56;94371.38;;;28.13;23.02
61128;BME280;47013;42.664;23.242;2023-09-30T11:52:15;94355.44;;;27.74;23.03
61128;BME280;47013;42.664;23.242;2023-09-30T11:54:42;94362.00;;;27.71;23.23
61128;BME280;47013;42.664;23.242;2023-09-30T11:57:10;94352.91;;;27.87;23.26
61128;BME280;47013;42.664;23.242;2023-09-30T11:59:36;94358.94;;;27.52;23.29
61128;BME280;47013;42.664;23.242;2023-09-30T12:02:02;94361.47;;;27.45;23.99
61128;BME280;47013;42.664;23.242;2023-09-30T12:04:29;94353.38;;;27.41;23.66
61128;BME280;47013;42.664;23.242;2023-09-30T12:06:54;94359.44;;;27.45;23.52
61128;BME280;47013;42.664;23.242;2023-09-30T12:09:20;94358.41;;;27.20;23.70
61128;BME280;47013;42.664;23.242;2023-09-30T12:11:53;94353.88;;;27.40;23.65
61128;BME280;47013;42.664;23.242;2023-09-30T12:14:22;94351.56;;;27.10;23.49
61128;BME280;47013;42.664;23.242;2023-09-30T12:16:48;94348.50;;;27.08;23.81
61128;BME280;47013;42.664;23.242;2023-09-30T12:19:14;94343.63;;;26.92;24.27
61128;BME280;47013;42.664;23.242;2023-09-30T12:21:41;94340.03;;;26.69;24.40
61128;BME280;47013;42.664;23.242;2023-09-30T12:24:07;94333.25;;;26.87;24.75
61128;BME280;47013;42.664;23.242;2023-09-30T12:26:37;94323.47;;;27.14;24.01
61128;BME280;47013;42.664;23.242;2023-09-30T12:29:03;94326.53;;;27.27;24.23
61128;BME280;47013;42.664;23.242;2023-09-30T12:31:30;94318.19;;;27.49;23.84
61128;BME280;47013;42.664;23.242;2023-09-30T12:33:56;94317.66;;;27.84;23.96
61128;BME280;47013;42.664;23.242;2023-09-30T12:36:21;94327.06;;;27.76;23.13
61128;BME280;47013;42.664;23.242;2023-09-30T12:38:47;94323.25;;;27.56;23.54
61128;BME280;47013;42.664;23.242;2023-09-30T12:41:13;94320.47;;;27.68;23.17
61128;BME280;47013;42.664;23.242;2023-09-30T12:43:40;94316.19;;;27.67;22.95
61128;BME280;47013;42.664;23.242;2023-09-30T12:46:10;94318.44;;;27.79;23.03
61128;BME280;47013;42.664;23.242;2023-09-30T12:48:38;94319.41;;;27.99;22.74
61128;BME280;47013;42.664;23.242;2023-09-30T12:51:04;94309.25;;;28.18;22.34
61128;BME280;47013;42.664;23.242;2023-09-30T12:53:31;94309.84;;;27.66;22.69
61128;BME280;47013;42.664;23.242;2023-09-30T12:55:57;94305.78;;;27.39;22.79
61128;BME280;47013;42.664;23.242;2023-09-30T12:58:23;94305.00;;;27.27;23.28
61128;BME280;47013;42.664;23.242;2023-09-30T13:00:49;94302.22;;;27.05;23.50
61128;BME280;47013;42.664;23.242;2023-09-30T13:03:15;94307.53;;;27.14;23.62
61128;BME280;47013;42.664;23.242;2023-09-30T13:05:40;94295.38;;;27.17;23.39
61128;BME280;47013;42.664;23.242;2023-09-30T13:08:06;94290.84;;;27.14;23.39
61128;BME280;47013;42.664;23.242;2023-09-30T13:10:31;94303.84;;;26.58;23.69
61128;BME280;47013;42.664;23.242;2023-09-30T13:12:56;94302.47;;;26.31;24.12